createdAt,value
2023-03-26T00:01:46.002Z,6.36
2023-03-26T00:04:42.538Z,6.86
2023-03-26T00:07:38.068Z,7.24
2023-03-26T00:10:34.649Z,6.94
2023-03-26T00:13:32.201Z,6.82
2023-03-26T00:16:28.774Z,6.53
2023-03-26T00:19:25.308Z,6.77
2023-03-26T00:22:22.874Z,6.73
2023-03-26T00:25:21.439Z,6.83
2023-03-26T00:28:16.948Z,6.92
2023-03-26T00:31:14.632Z,6.96
2023-03-26T00:34:15.096Z,6.86
2023-03-26T00:40:20.186Z,6.9
2023-03-26T00:43:18.773Z,6.83
2023-03-26T00:46:14.385Z,7.06
2023-03-26T00:49:14.995Z,7.02
2023-03-26T00:52:10.399Z,6.77
2023-03-26T00:55:06.955Z,6.76
2023-03-26T00:58:02.566Z,6.66
2023-03-26T01:01:03.152Z,6.69
2023-03-26T01:04:09.136Z,6.68
2023-03-26T01:07:10.144Z,6.66
2023-03-26T01:10:07.716Z,6.6
2023-03-26T01:13:03.371Z,6.46
2023-03-26T01:16:01.982Z,6.49
2023-03-26T01:19:00.422Z,6.41
2023-03-26T01:22:02.932Z,6.42
2023-03-26T01:24:58.456Z,6.31
2023-03-26T01:28:01.067Z,6.17
2023-03-26T01:31:06.575Z,6.13
2023-03-26T01:34:12.095Z,6.46
2023-03-26T01:37:15.677Z,6.15
2023-03-26T01:40:25.158Z,6.06
2023-03-26T01:43:29.743Z,5.92
2023-03-26T01:46:27.349Z,5.95
2023-03-26T01:49:22.822Z,5.85
2023-03-26T01:52:22.426Z,6.07
2023-03-26T01:55:19.922Z,5.85
2023-03-26T01:58:27.425Z,6.07
2023-03-26T02:01:31.038Z,5.77
2023-03-26T02:04:34.565Z,5.62
2023-03-26T02:07:42.065Z,5.47
2023-03-26T02:10:43.656Z,5.36
2023-03-26T02:13:40.170Z,5.35
2023-03-26T02:16:36.777Z,5.28
2023-03-26T02:19:32.288Z,5.28
2023-03-26T02:22:30.848Z,5.19
2023-03-26T02:25:26.413Z,5.05
2023-03-26T02:28:22.963Z,5.17
2023-03-26T02:31:19.548Z,5.06
2023-03-26T02:34:17.148Z,5.06
2023-03-26T02:37:14.631Z,5.02
2023-03-26T02:40:11.229Z,4.92
2023-03-26T02:43:07.779Z,5.02
2023-03-26T02:46:03.376Z,5.21
2023-03-26T02:48:58.879Z,5.51
2023-03-26T02:51:56.502Z,5.85
2023-03-26T02:54:52.989Z,5.73
2023-03-26T02:57:48.558Z,5.45
2023-03-26T03:00:50.134Z,5.5
2023-03-26T03:03:47.681Z,5.75
2023-03-26T03:06:44.253Z,5.85
2023-03-26T03:09:40.781Z,5.59
2023-03-26T03:12:37.353Z,5.6
2023-03-26T03:15:32.899Z,5.96
2023-03-26T03:18:28.473Z,5.8
2023-03-26T03:21:27.029Z,5.83
2023-03-26T03:24:23.614Z,5.36
2023-03-26T03:27:20.146Z,5.53
2023-03-26T03:30:15.683Z,5.46
2023-03-26T03:33:13.289Z,5.64
2023-03-26T03:36:19.889Z,5.86
2023-03-26T03:39:11.336Z,5.47
2023-03-26T03:42:06.912Z,5.12
2023-03-26T03:48:08.075Z,5.07
2023-03-26T03:51:04.571Z,5.11
2023-03-26T03:54:00.174Z,4.99
2023-03-26T03:56:57.726Z,4.91
2023-03-26T03:59:53.261Z,4.87
2023-03-26T04:02:58.881Z,4.96
2023-03-26T04:05:56.470Z,4.89
2023-03-26T04:08:51.924Z,4.88
2023-03-26T04:11:47.457Z,4.86
2023-03-26T04:17:48.617Z,4.94
2023-03-26T04:20:46.140Z,4.61
2023-03-26T04:23:45.681Z,4.75
2023-03-26T04:26:47.219Z,5
2023-03-26T04:29:49.784Z,5.07
2023-03-26T04:32:51.351Z,4.59
2023-03-26T04:35:47.966Z,4.56
2023-03-26T04:38:44.500Z,4.66
2023-03-26T04:41:42.978Z,4.62
2023-03-26T04:44:41.562Z,4.91
2023-03-26T04:47:39.196Z,4.67
2023-03-26T04:50:35.659Z,5.14
2023-03-26T04:53:31.218Z,5.5
2023-03-26T04:56:34.828Z,5.25
2023-03-26T04:59:35.408Z,5.16
2023-03-26T05:02:31.926Z,5.28
2023-03-26T05:05:28.391Z,5.43
2023-03-26T05:11:29.521Z,5.65
2023-03-26T05:14:26.092Z,5.62
2023-03-26T05:17:24.761Z,6.25
2023-03-26T05:20:22.199Z,5.92
2023-03-26T05:23:17.739Z,5.85
2023-03-26T05:26:13.297Z,6.28
2023-03-26T05:29:08.871Z,6.66
2023-03-26T05:32:04.430Z,6.47
2023-03-26T05:35:01.016Z,6.42
2023-03-26T05:37:57.557Z,6.9
2023-03-26T05:40:57.080Z,6.71
2023-03-26T05:43:52.658Z,7.09
2023-03-26T05:46:48.252Z,7.37
2023-03-26T05:49:43.765Z,7.32
2023-03-26T05:52:39.340Z,7.3
2023-03-26T05:55:34.921Z,7.39
2023-03-26T05:58:32.458Z,7.33
2023-03-26T06:01:30.078Z,7.54
2023-03-26T06:04:27.672Z,7.83
2023-03-26T06:07:24.194Z,7.99
2023-03-26T06:10:20.692Z,8.16
2023-03-26T06:13:16.263Z,8.25
2023-03-26T06:16:21.103Z,8.47
2023-03-26T06:19:13.430Z,8.44
2023-03-26T06:22:09.921Z,8.54
2023-03-26T06:25:07.532Z,8.81
2023-03-26T06:28:04.038Z,8.93
2023-03-26T06:31:01.670Z,9.02
2023-03-26T06:33:57.126Z,9.37
2023-03-26T06:36:52.738Z,9.55
2023-03-26T06:39:48.284Z,9.73
2023-03-26T06:43:06.944Z,9.93
2023-03-26T06:45:44.397Z,10.14
2023-03-26T06:51:46.480Z,10.29
2023-03-26T06:54:42.071Z,10.31
2023-03-26T06:57:37.599Z,10.4
2023-03-26T07:00:33.193Z,10.54
2023-03-26T07:06:34.276Z,10.82
2023-03-26T07:12:35.416Z,11.09
2023-03-26T07:15:31.964Z,11.13
2023-03-26T07:18:27.537Z,11.36
2023-03-26T07:24:28.578Z,12.11
2023-03-26T07:27:36.140Z,12.36
2023-03-26T07:30:41.689Z,12.45
2023-03-26T07:33:45.213Z,12.35
2023-03-26T07:36:52.765Z,12.4
2023-03-26T07:39:58.236Z,12.65
2023-03-26T07:43:05.819Z,12.61
2023-03-26T07:46:08.364Z,12.78
2023-03-26T07:49:12.898Z,12.86
2023-03-26T07:52:10.475Z,12.95
2023-03-26T07:55:07.018Z,13.06
2023-03-26T07:58:13.575Z,13.21
2023-03-26T08:01:18.051Z,13.46
2023-03-26T08:04:31.660Z,13.46
2023-03-26T08:07:39.138Z,13.53
2023-03-26T08:10:42.638Z,13.71
2023-03-26T08:13:53.181Z,13.76
2023-03-26T08:16:54.748Z,13.85
2023-03-26T08:20:10.260Z,14.14
2023-03-26T08:23:12.792Z,14.22
2023-03-26T08:29:32.866Z,14.39
2023-03-26T08:32:30.417Z,14.5
2023-03-26T08:35:27.017Z,14.8
2023-03-26T08:38:23.541Z,14.94
2023-03-26T08:41:38.022Z,14.96
2023-03-26T08:44:47.565Z,15.08
2023-03-26T08:48:03.140Z,15.22
2023-03-26T08:51:20.559Z,15.36
2023-03-26T08:54:37.064Z,15.57
2023-03-26T08:57:53.599Z,15.54
2023-03-26T09:01:09.120Z,15.82
2023-03-26T09:04:23.620Z,15.98
2023-03-26T09:07:37.109Z,16.3
2023-03-26T09:10:46.673Z,16.41
2023-03-26T09:13:58.134Z,16.3
2023-03-26T09:17:13.662Z,16.39
2023-03-26T09:20:27.234Z,16.61
2023-03-26T09:23:38.759Z,16.78
2023-03-26T09:26:46.297Z,16.77
2023-03-26T09:29:54.783Z,17.04
2023-03-26T09:33:11.299Z,17.03
2023-03-26T09:36:26.824Z,17.15
2023-03-26T09:39:33.346Z,17.5
2023-03-26T09:42:42.869Z,17.38
2023-03-26T09:45:57.352Z,17.45
2023-03-26T09:49:12.898Z,17.57
2023-03-26T09:52:24.441Z,17.67
2023-03-26T09:55:39.980Z,17.84
2023-03-26T09:58:56.446Z,17.65
2023-03-26T10:02:03.996Z,17.56
2023-03-26T10:05:21.494Z,17.83
2023-03-26T10:08:32.996Z,18.38
2023-03-26T10:11:38.527Z,18.48
2023-03-26T10:14:42.129Z,18.36
2023-03-26T10:17:51.666Z,18.6
2023-03-26T10:20:59.129Z,18.64
2023-03-26T10:24:08.635Z,19.31
2023-03-26T10:27:24.312Z,19.52
2023-03-26T10:30:41.697Z,19.23
2023-03-26T10:33:52.191Z,19.34
2023-03-26T10:37:04.715Z,19.27
2023-03-26T10:40:12.266Z,19.47
2023-03-26T10:43:21.754Z,19.67
2023-03-26T10:46:37.328Z,19.87
2023-03-26T10:49:48.809Z,19.79
2023-03-26T10:52:49.339Z,19.65
2023-03-26T10:55:51.890Z,20.5
2023-03-26T10:58:50.630Z,20.57
2023-03-26T11:01:56.058Z,20.33
2023-03-26T11:05:07.570Z,20.29
2023-03-26T11:08:13.049Z,20.59
2023-03-26T11:11:19.602Z,20.46
2023-03-26T11:14:33.842Z,20.23
2023-03-26T11:17:41.000Z,20.37
2023-03-26T11:20:41.242Z,21.13
2023-03-26T11:23:49.706Z,21.29
2023-03-26T11:26:55.236Z,21.44
2023-03-26T11:30:02.744Z,21.27
2023-03-26T11:33:04.327Z,21.42
2023-03-26T11:39:13.404Z,21.2
2023-03-26T11:42:10.992Z,21.83
2023-03-26T11:45:15.521Z,22.57
2023-03-26T11:48:19.058Z,22.07
2023-03-26T11:51:19.605Z,23.66
2023-03-26T11:54:21.155Z,24.38
2023-03-26T11:57:22.741Z,24.45
2023-03-26T12:00:27.247Z,23.7
2023-03-26T12:03:29.764Z,22.83
2023-03-26T12:06:32.348Z,23.51
2023-03-26T12:09:28.828Z,23.57
2023-03-26T12:12:30.409Z,23.27
2023-03-26T12:15:26.965Z,23.4
2023-03-26T12:18:28.550Z,23.63
2023-03-26T12:21:30.102Z,25.04
2023-03-26T12:24:29.611Z,25.38
2023-03-26T12:27:30.180Z,25.64
2023-03-26T12:30:33.713Z,25.01
2023-03-26T12:33:34.428Z,24.89
2023-03-26T12:36:32.822Z,25.2
2023-03-26T12:40:07.284Z,25.93
